Flight Track Log - Related Links

Times and Time Zones

All times are in EDT time to prevent confusion due to time zone crossing. See the N779NC flight status page for this flight to view local times or setup timezone preferences in your user account.

Time Position Orientation Groundspeed Altitude Reporting Facility
EDT Latitude Longitude Course Direction KTS MPH feet Rate Location/Type
Wed 04:51:42 PM 33.6536 -84.4831 348° North 439 505 2,300  Level Atlanta Center
Wed 04:52:42 PM 33.6783 -84.5631 290° West 306 352 4,400 2,300 Climbing Atlanta Center
Wed 04:53:42 PM 33.7428 -84.6158 326° Northwest 248 285 6,900 2,250 Climbing Atlanta Center
Wed 04:54:00 PM 34.0460 -84.5245 349° North  Level FlightAware Approximate
Wed 04:54:42 PM 33.8219 -84.6339 349° North 295 339 8,900  Level Atlanta Center
Wed 04:55:00 PM 34.1428 -84.5503 347° North  Level FlightAware Approximate
Wed 04:55:42 PM 33.9056 -84.6394 357° North 308 354 10,200  Level Atlanta Center
Wed 04:56:00 PM 34.2445 -84.5781 348° North  Level FlightAware Approximate
Wed 04:56:42 PM 34.0036 -84.6478 356° North 332 382 11,400  Level Atlanta Center
Wed 04:57:00 PM 34.3465 -84.6045 348° North  Level FlightAware Approximate
Wed 04:57:42 PM 34.0994 -84.6683 350° North 344 396 13,900  Level Atlanta Center
Wed 04:58:42 PM 34.1828 -84.6892 348° North 344 396 15,100 1,400 Climbing Atlanta Center
Wed 04:59:42 PM 34.2808 -84.7150 348° North 354 407 16,700 1,500 Climbing Atlanta Center
Wed 05:00:42 PM 34.3850 -84.7336 352° North 370 426 18,100 1,550 Climbing Atlanta Center
Wed 05:01:42 PM 34.4892 -84.7594 348° North 370 426 19,800 1,450 Climbing Atlanta Center
Wed 05:02:42 PM 34.5933 -84.7831 349° North 370 426 21,000 1,250 Climbing Atlanta Center
Wed 05:03:42 PM 34.7144 -84.8094 350° North 380 437 22,300 1,400 Climbing Atlanta Center
Wed 05:04:42 PM 34.8206 -84.8383 347° North 390 449 23,800 1,200 Climbing Atlanta Center
Wed 05:05:42 PM 34.9311 -84.8622 350° North 395 455 24,700 800 Climbing Atlanta Center
Wed 05:06:42 PM 35.0436 -84.8786 353° North 395 455 25,400 793 Climbing Atlanta Center
Wed 05:07:43 PM 35.1603 -84.8950 353° North 406 467 26,300 800 Climbing Atlanta Center
Wed 05:08:42 PM 35.2814 -84.9039 357° North 417 480 27,000 706 Climbing Atlanta Center
Wed 05:09:42 PM 35.4000 -84.9203 354° North 424 488 27,700 446 Climbing Atlanta Center
Wed 05:10:43 PM 35.5253 -84.9369 354° North 435 501 27,900 150 Climbing Atlanta Center
Wed 05:11:42 PM 35.6503 -84.9433 358° North 442 509 28,000 50 Climbing Atlanta Center
Wed 05:12:42 PM 35.7733 -84.9678 351° North 447 514 28,000  Level Atlanta Center
Wed 05:13:40 PM 35.8933 -84.9986 348° North 452 520 28,000  Level Indianapolis Center
Wed 05:14:42 PM 36.0078 -85.0244 350° North 456 525 28,000 -484 Level Indianapolis Center
Wed 05:15:44 PM 36.1308 -85.0458 352° North 447 514 27,000 -871 Descending Indianapolis Center
Wed 05:16:46 PM 36.2678 -85.0994 342° North 431 496 26,200 -726 Descending Indianapolis Center
Wed 05:17:48 PM 36.3814 -85.1325 347° North 422 486 25,500 -927 Descending Indianapolis Center
Wed 05:18:49 PM 36.4939 -85.1606 349° North 414 476 24,300 -878 Descending Indianapolis Center
Wed 05:19:51 PM 36.6028 -85.1708 356° North 395 455 23,700 -871 Descending Indianapolis Center
Wed 05:20:53 PM 36.6961 -85.1444 13° North 344 396 22,500 -823 Descending Indianapolis Center
Wed 05:21:55 PM 36.7922 -85.1261 North 351 404 22,000 -242 Descending Indianapolis Center
Wed 05:22:57 PM 36.8875 -85.1086 North 347 399 22,000  Level Indianapolis Center
Wed 05:23:59 PM 36.9875 -85.0842 11° North 358 412 22,000  Level Indianapolis Center
Wed 05:25:00 PM 37.0958 -85.0631 North 367 422 22,000  Level Indianapolis Center
Wed 05:26:02 PM 37.2172 -85.0314 12° North 379 436 22,000  Level Indianapolis Center
Wed 05:27:04 PM 37.3233 -85.0125 North 381 438 22,000  Level Indianapolis Center
Wed 05:28:06 PM 37.4289 -84.9925 North 382 440 22,000  Level Indianapolis Center
Wed 05:29:08 PM 37.5322 -84.9661 11° North 380 437 22,000  Level Indianapolis Center
Wed 05:30:10 PM 37.6381 -84.9550 North 379 436 22,000  Level Indianapolis Center
Wed 05:31:12 PM 37.7150 -85.0181 327° Northwest 361 415 22,000  Level Indianapolis Center
Wed 05:32:13 PM 37.6458 -85.1092 226° Southwest 363 418 22,000 -244 Level Indianapolis Center
Wed 05:33:15 PM 37.5664 -85.0211 139° Southeast 397 457 21,500 -484 Descending Indianapolis Center
Wed 05:34:17 PM 37.5036 -84.9006 123° Southeast 411 473 21,000 -242 Descending Indianapolis Center
Wed 05:35:19 PM 37.4703 -84.7739 108° East 410 472 21,000  Level Indianapolis Center
Wed 05:36:21 PM 37.5539 -84.7344 21° North 356 410 21,000  Level Indianapolis Center
Wed 05:37:22 PM 37.6036 -84.8333 302° West 335 386 21,000  Level Indianapolis Center
Wed 05:38:24 PM 37.6669 -84.9500 304° West 345 397 21,000  Level Indianapolis Center
Wed 05:39:26 PM 37.6583 -85.0606 264° West 349 402 21,000 -145 Level Indianapolis Center
Wed 05:40:28 PM 37.5611 -85.0461 173° South 384 442 20,700 -390 Descending Indianapolis Center
Wed 05:41:29 PM 37.4992 -84.9353 125° Southeast 387 445 20,200 -341 Descending Indianapolis Center
Wed 05:42:31 PM 37.4353 -84.8258 126° Southeast 388 447 20,000 -97 Descending Indianapolis Center
Wed 05:43:33 PM 37.4269 -84.7031 95° East 391 450 20,000  Level Indianapolis Center
Wed 05:44:34 PM 37.5119 -84.7083 357° North 356 410 20,000  Level Indianapolis Center
Wed 05:45:36 PM 37.5736 -84.8239 304° West 344 396 20,000  Level Indianapolis Center
Wed 05:46:38 PM 37.6319 -84.9219 307° West 347 399 20,000  Level Indianapolis Center
Wed 05:47:40 PM 37.6864 -85.0175 306° West 337 388 20,000  Level Indianapolis Center
Wed 05:48:41 PM 37.6172 -85.0869 219° Southwest 332 382 20,000  Level Indianapolis Center
Wed 05:49:43 PM 37.5308 -85.0092 144° Southeast 389 448 20,000  Level Indianapolis Center
Wed 05:50:45 PM 37.4694 -84.8939 124° Southeast 397 457 20,000  Level Indianapolis Center
Wed 05:51:47 PM 37.4825 -84.7528 83° East 394 453 20,000  Level Indianapolis Center
Wed 05:52:48 PM 37.5664 -84.7681 352° North 340 391 20,000  Level Indianapolis Center
Wed 05:53:50 PM 37.6186 -84.8681 303° West 339 390 20,000  Level Indianapolis Center
Wed 05:54:52 PM 37.6703 -84.9692 303° West 344 396 20,000  Level Indianapolis Center
Wed 05:55:54 PM 37.6383 -85.0708 248° West 352 405 20,000  Level Indianapolis Center
Wed 05:56:55 PM 37.5464 -85.0308 161° South 384 442 20,000  Level Indianapolis Center
Wed 05:57:57 PM 37.4719 -84.8992 125° Southeast 394 453 20,000  Level Indianapolis Center
Wed 05:58:59 PM 37.4656 -84.7744 94° East 397 457 20,000  Level Indianapolis Center
Wed 06:00:01 PM 37.5522 -84.7694 North 356 410 20,000  Level Indianapolis Center
Wed 06:01:02 PM 37.5983 -84.8761 299° West 349 402 20,000  Level Indianapolis Center
Wed 06:02:04 PM 37.6672 -84.9681 313° West 357 411 20,000  Level Indianapolis Center
Wed 06:03:06 PM 37.6622 -85.0756 267° West 331 381 20,000  Level Indianapolis Center
Wed 06:04:07 PM 37.5672 -85.0742 179° South 371 427 20,000 -146 Level Indianapolis Center
Wed 06:05:09 PM 37.4906 -84.9483 127° Southeast 389 448 19,700 -1,065 Descending Indianapolis Center
Wed 06:06:11 PM 37.4006 -84.9492 180° South 341 392 17,800 -1,902 Descending Indianapolis Center
Wed 06:07:12 PM 37.3711 -85.0458 249° West 301 346 15,800 -1,317 Descending Indianapolis Center
Wed 06:08:14 PM 37.3581 -85.1519 261° West 306 352 15,100 -390 Descending Indianapolis Center
Wed 06:09:15 PM 37.3783 -85.2508 284° West 301 346 15,000 -683 Descending Indianapolis Center
Wed 06:10:17 PM 37.4250 -85.3364 305° West 297 342 13,700 -1,645 Descending Indianapolis Center
Wed 06:11:19 PM 37.4703 -85.4192 305° West 288 331 11,600 -1,854 Descending Indianapolis Center
Wed 06:12:20 PM 37.5308 -85.5025 313° West 275 316 9,900 -1,220 Descending Indianapolis Center
Wed 06:13:22 PM 37.5781 -85.5589 317° Northwest 265 305 9,100 -1,306 Descending Indianapolis Center
Wed 06:14:24 PM 37.6536 -85.5603 359° North 286 329 7,200 -1,707 Descending Indianapolis Center
Wed 06:15:25 PM 37.7236 -85.5964 338° Northwest 277 319 5,600 -1,366 Descending Indianapolis Center
Wed 06:16:27 PM 37.8094 -85.6197 348° North 264 304 4,400 -780 Descending Indianapolis Center
Wed 06:17:28 PM 37.8744 -85.6481 341° North 256 295 4,000 -195 Descending Indianapolis Center
Wed 06:18:30 PM 37.9408 -85.6669 347° North 249 287 4,000 -290 Level Indianapolis Center
Wed 06:19:32 PM 38.0075 -85.6886 346° North 248 285 3,400 -581 Descending Indianapolis Center

Login

Don't have an account? Register now (free) for customized features, flight alerts, and more!